« 次のマニア度高く、売れそうなステーショナリーはこれ | トップページ | 愛、アムール - Amour - »

2014年7月27日 (日)

雨で外出できません

RJOO 270400Z 35006KT 300V020 9999 R32R/1100VP1800D R32L/1200VP1800U +SHRA FEW012 SCT020 FEW025CB BKN030 25/24 Q1008 RMK 1CU012 3CU020 2CB025 5CU030 A2977 CB 5KM

結構激しそうですね。

昨日は独身の勉強仲間の家に泊めてもらいました。

201407271300

お金持ちだったのね^^

TAF AMD RJOO 270313Z 2703/2806 35011KT 9999 FEW020 BKN040
TEMPO 2703/2705 3000 TSRA BR FEW015 SCT025 FEW025CB BKN035

雷雨も15:00まではありそうですね。

こちらででのんびり読書ですね。

これを読んでます。。

これでしばらく涼しくなればいいのですが。
昼間はどうしても暑くてつらいですね。

熱中症対策してください

お水ありがとうございます。
Photo

↓おひとり、おひとつのクリックがやる気の素になっています。クリックお願いします。


マーケティング・経営 ブログランキングへ

ただいま第25位→Best10ランクインまであとわずか!!

アルクの「TOEIC(R)テスト スコア保証」全額返金

銀座の老舗時計店が手がける本物志向。天賞堂を買うならJALショッピングで♪-JALショッピング

JALキャビナテンダントが「欲しいモノ」を形にしました!-JALショッピング

ANAショッピング ANAのマイルがたまるastyle

AMO'STYLE 公式通販サイト

チケットぴあ

トリンプ・オンラインショップ

トリンプ・オンラインショップ

【ウンナナクール】シンプルなデザインでありながら、おしゃれな エッセンスをちょこっと効かせたオリジナルの下着をつくっています♪ 高い品質とお手頃プライスでお届け☆

« 次のマニア度高く、売れそうなステーショナリーはこれ | トップページ | 愛、アムール - Amour - »

日記・コラム・つぶやき」カテゴリの記事

コメント

コメントを書く

コメントは記事投稿者が公開するまで表示されません。

(ウェブ上には掲載しません)

トラックバック


この記事へのトラックバック一覧です: 雨で外出できません:

« 次のマニア度高く、売れそうなステーショナリーはこれ | トップページ | 愛、アムール - Amour - »

無料ブログはココログ